sensor_id;sensor_type;location;lat;lon;timestamp;P1;durP1;ratioP1;P2;durP2;ratioP2
83690;SDS011;73671;43.220;0.064;2024-01-15T00:00:23;15.40;;;10.93;;
83690;SDS011;73671;43.220;0.064;2024-01-15T00:02:49;14.02;;;8.93;;
83690;SDS011;73671;43.220;0.064;2024-01-15T00:05:14;13.13;;;9.00;;
83690;SDS011;73671;43.220;0.064;2024-01-15T00:07:40;22.75;;;12.07;;
83690;SDS011;73671;43.220;0.064;2024-01-15T00:10:05;24.67;;;12.98;;
83690;SDS011;73671;43.220;0.064;2024-01-15T00:12:31;18.30;;;10.40;;
83690;SDS011;73671;43.220;0.064;2024-01-15T00:14:56;18.73;;;11.15;;
83690;SDS011;73671;43.220;0.064;2024-01-15T00:17:22;23.45;;;11.55;;
83690;SDS011;73671;43.220;0.064;2024-01-15T00:19:47;20.25;;;10.88;;
83690;SDS011;73671;43.220;0.064;2024-01-15T00:22:12;18.35;;;10.63;;
83690;SDS011;73671;43.220;0.064;2024-01-15T00:24:38;18.10;;;10.18;;
83690;SDS011;73671;43.220;0.064;2024-01-15T00:27:03;16.85;;;10.80;;
83690;SDS011;73671;43.220;0.064;2024-01-15T00:29:28;21.45;;;10.88;;
83690;SDS011;73671;43.220;0.064;2024-01-15T00:31:54;15.57;;;10.18;;
83690;SDS011;73671;43.220;0.064;2024-01-15T00:34:19;18.80;;;9.68;;
83690;SDS011;73671;43.220;0.064;2024-01-15T00:36:44;22.15;;;11.18;;
83690;SDS011;73671;43.220;0.064;2024-01-15T00:39:10;16.02;;;9.65;;
83690;SDS011;73671;43.220;0.064;2024-01-15T00:41:35;12.85;;;8.30;;
83690;SDS011;73671;43.220;0.064;2024-01-15T00:44:01;17.38;;;7.78;;
83690;SDS011;73671;43.220;0.064;2024-01-15T00:46:28;12.60;;;7.80;;
83690;SDS011;73671;43.220;0.064;2024-01-15T00:48:53;11.52;;;8.23;;
83690;SDS011;73671;43.220;0.064;2024-01-15T00:51:18;10.40;;;8.15;;
83690;SDS011;73671;43.220;0.064;2024-01-15T00:53:44;14.05;;;8.55;;
83690;SDS011;73671;43.220;0.064;2024-01-15T00:56:09;13.38;;;8.80;;
83690;SDS011;73671;43.220;0.064;2024-01-15T00:58:35;15.68;;;8.25;;
83690;SDS011;73671;43.220;0.064;2024-01-15T01:01:00;15.13;;;8.23;;
83690;SDS011;73671;43.220;0.064;2024-01-15T01:03:25;13.60;;;8.65;;
83690;SDS011;73671;43.220;0.064;2024-01-15T01:05:51;11.75;;;8.30;;
83690;SDS011;73671;43.220;0.064;2024-01-15T01:08:16;11.55;;;7.88;;
83690;SDS011;73671;43.220;0.064;2024-01-15T01:10:41;10.27;;;7.88;;
83690;SDS011;73671;43.220;0.064;2024-01-15T01:13:10;12.65;;;8.52;;
83690;SDS011;73671;43.220;0.064;2024-01-15T01:15:35;12.02;;;7.28;;
83690;SDS011;73671;43.220;0.064;2024-01-15T01:18:01;12.23;;;8.32;;
83690;SDS011;73671;43.220;0.064;2024-01-15T01:20:26;14.43;;;8.82;;
83690;SDS011;73671;43.220;0.064;2024-01-15T01:22:51;10.75;;;7.93;;
83690;SDS011;73671;43.220;0.064;2024-01-15T01:25:17;12.48;;;9.38;;
83690;SDS011;73671;43.220;0.064;2024-01-15T01:27:42;11.25;;;8.57;;
83690;SDS011;73671;43.220;0.064;2024-01-15T01:30:08;10.48;;;7.97;;
83690;SDS011;73671;43.220;0.064;2024-01-15T01:32:33;10.38;;;7.88;;
83690;SDS011;73671;43.220;0.064;2024-01-15T01:34:59;10.52;;;7.80;;
83690;SDS011;73671;43.220;0.064;2024-01-15T01:37:24;9.75;;;7.38;;
83690;SDS011;73671;43.220;0.064;2024-01-15T01:39:50;10.35;;;7.38;;
83690;SDS011;73671;43.220;0.064;2024-01-15T01:42:15;10.27;;;7.25;;
83690;SDS011;73671;43.220;0.064;2024-01-15T01:44:40;12.18;;;7.25;;
83690;SDS011;73671;43.220;0.064;2024-01-15T01:47:06;10.48;;;7.72;;
83690;SDS011;73671;43.220;0.064;2024-01-15T01:49:31;11.55;;;7.03;;
83690;SDS011;73671;43.220;0.064;2024-01-15T01:51:58;11.15;;;7.15;;
83690;SDS011;73671;43.220;0.064;2024-01-15T01:54:26;11.30;;;7.70;;
83690;SDS011;73671;43.220;0.064;2024-01-15T01:56:54;11.98;;;8.20;;
83690;SDS011;73671;43.220;0.064;2024-01-15T01:59:21;10.35;;;7.60;;
83690;SDS011;73671;43.220;0.064;2024-01-15T02:01:48;10.15;;;6.80;;
83690;SDS011;73671;43.220;0.064;2024-01-15T02:04:14;9.25;;;6.07;;
83690;SDS011;73671;43.220;0.064;2024-01-15T02:06:41;9.13;;;5.18;;
83690;SDS011;73671;43.220;0.064;2024-01-15T02:09:07;7.25;;;4.88;;
83690;SDS011;73671;43.220;0.064;2024-01-15T02:11:34;6.05;;;4.28;;
83690;SDS011;73671;43.220;0.064;2024-01-15T02:13:59;7.03;;;4.07;;
83690;SDS011;73671;43.220;0.064;2024-01-15T02:16:25;6.78;;;4.97;;
83690;SDS011;73671;43.220;0.064;2024-01-15T02:18:50;6.13;;;5.20;;
83690;SDS011;73671;43.220;0.064;2024-01-15T02:21:15;6.95;;;5.05;;
83690;SDS011;73671;43.220;0.064;2024-01-15T02:23:41;8.45;;;5.20;;
83690;SDS011;73671;43.220;0.064;2024-01-15T02:26:06;6.45;;;5.20;;
83690;SDS011;73671;43.220;0.064;2024-01-15T02:28:33;8.55;;;5.95;;
83690;SDS011;73671;43.220;0.064;2024-01-15T02:30:59;5.57;;;4.32;;
83690;SDS011;73671;43.220;0.064;2024-01-15T02:33:24;5.68;;;4.40;;
83690;SDS011;73671;43.220;0.064;2024-01-15T02:35:50;7.65;;;4.65;;
83690;SDS011;73671;43.220;0.064;2024-01-15T02:38:15;6.95;;;4.03;;
83690;SDS011;73671;43.220;0.064;2024-01-15T02:40:41;8.18;;;4.75;;
83690;SDS011;73671;43.220;0.064;2024-01-15T02:43:07;5.10;;;3.95;;
83690;SDS011;73671;43.220;0.064;2024-01-15T02:45:33;4.38;;;3.72;;
83690;SDS011;73671;43.220;0.064;2024-01-15T02:47:58;5.43;;;3.70;;
83690;SDS011;73671;43.220;0.064;2024-01-15T02:50:23;5.50;;;4.10;;
83690;SDS011;73671;43.220;0.064;2024-01-15T02:52:49;4.85;;;3.60;;
83690;SDS011;73671;43.220;0.064;2024-01-15T02:55:14;4.28;;;2.88;;
83690;SDS011;73671;43.220;0.064;2024-01-15T02:57:40;3.55;;;2.88;;
83690;SDS011;73671;43.220;0.064;2024-01-15T03:00:05;3.70;;;3.00;;
83690;SDS011;73671;43.220;0.064;2024-01-15T03:02:32;4.63;;;3.10;;
83690;SDS011;73671;43.220;0.064;2024-01-15T03:04:57;3.60;;;2.90;;
83690;SDS011;73671;43.220;0.064;2024-01-15T03:07:23;3.67;;;2.75;;
83690;SDS011;73671;43.220;0.064;2024-01-15T03:09:48;3.03;;;2.55;;
83690;SDS011;73671;43.220;0.064;2024-01-15T03:12:13;4.40;;;2.72;;
83690;SDS011;73671;43.220;0.064;2024-01-15T03:14:39;6.15;;;3.08;;
83690;SDS011;73671;43.220;0.064;2024-01-15T03:17:04;3.42;;;2.78;;
83690;SDS011;73671;43.220;0.064;2024-01-15T03:19:30;5.50;;;3.03;;
83690;SDS011;73671;43.220;0.064;2024-01-15T03:21:55;5.05;;;2.92;;
83690;SDS011;73671;43.220;0.064;2024-01-15T03:24:21;7.68;;;3.03;;
83690;SDS011;73671;43.220;0.064;2024-01-15T03:26:46;5.20;;;3.10;;
83690;SDS011;73671;43.220;0.064;2024-01-15T03:29:12;4.32;;;3.03;;
83690;SDS011;73671;43.220;0.064;2024-01-15T03:31:37;3.78;;;2.90;;
83690;SDS011;73671;43.220;0.064;2024-01-15T03:34:02;5.57;;;3.45;;
83690;SDS011;73671;43.220;0.064;2024-01-15T03:36:28;3.33;;;2.90;;
83690;SDS011;73671;43.220;0.064;2024-01-15T03:38:54;4.53;;;2.88;;
83690;SDS011;73671;43.220;0.064;2024-01-15T03:41:19;4.10;;;2.90;;
83690;SDS011;73671;43.220;0.064;2024-01-15T03:43:44;5.10;;;3.15;;
83690;SDS011;73671;43.220;0.064;2024-01-15T03:46:10;5.22;;;3.28;;
83690;SDS011;73671;43.220;0.064;2024-01-15T03:48:35;3.40;;;3.10;;
83690;SDS011;73671;43.220;0.064;2024-01-15T03:51:01;3.92;;;3.30;;
83690;SDS011;73671;43.220;0.064;2024-01-15T03:53:26;4.60;;;3.50;;
83690;SDS011;73671;43.220;0.064;2024-01-15T03:55:52;4.78;;;3.30;;
83690;SDS011;73671;43.220;0.064;2024-01-15T03:58:17;5.18;;;3.00;;
83690;SDS011;73671;43.220;0.064;2024-01-15T04:00:43;6.93;;;3.40;;
83690;SDS011;73671;43.220;0.064;2024-01-15T04:03:09;3.88;;;3.05;;
83690;SDS011;73671;43.220;0.064;2024-01-15T04:05:34;4.78;;;2.85;;
83690;SDS011;73671;43.220;0.064;2024-01-15T04:08:00;6.70;;;3.10;;
83690;SDS011;73671;43.220;0.064;2024-01-15T04:10:26;4.32;;;2.97;;
83690;SDS011;73671;43.220;0.064;2024-01-15T04:12:51;5.10;;;3.28;;
83690;SDS011;73671;43.220;0.064;2024-01-15T04:15:16;3.85;;;3.35;;
83690;SDS011;73671;43.220;0.064;2024-01-15T04:17:42;3.88;;;3.05;;
83690;SDS011;73671;43.220;0.064;2024-01-15T04:20:08;4.50;;;3.33;;
83690;SDS011;73671;43.220;0.064;2024-01-15T04:22:34;5.47;;;3.40;;
83690;SDS011;73671;43.220;0.064;2024-01-15T04:25:00;3.88;;;3.40;;
83690;SDS011;73671;43.220;0.064;2024-01-15T04:27:26;7.82;;;3.65;;
83690;SDS011;73671;43.220;0.064;2024-01-15T04:29:52;4.35;;;3.50;;
83690;SDS011;73671;43.220;0.064;2024-01-15T04:32:18;3.50;;;3.17;;
83690;SDS011;73671;43.220;0.064;2024-01-15T04:34:43;11.45;;;5.32;;
83690;SDS011;73671;43.220;0.064;2024-01-15T04:37:08;10.93;;;5.07;;
83690;SDS011;73671;43.220;0.064;2024-01-15T04:39:34;11.32;;;5.20;;
83690;SDS011;73671;43.220;0.064;2024-01-15T04:41:59;8.35;;;3.80;;
83690;SDS011;73671;43.220;0.064;2024-01-15T04:44:24;5.00;;;3.45;;
83690;SDS011;73671;43.220;0.064;2024-01-15T04:46:50;5.15;;;2.63;;
83690;SDS011;73671;43.220;0.064;2024-01-15T04:49:15;3.35;;;2.55;;
83690;SDS011;73671;43.220;0.064;2024-01-15T04:51:41;3.63;;;2.58;;
83690;SDS011;73671;43.220;0.064;2024-01-15T04:54:06;6.70;;;2.88;;
83690;SDS011;73671;43.220;0.064;2024-01-15T04:56:31;4.40;;;2.53;;
83690;SDS011;73671;43.220;0.064;2024-01-15T04:58:57;5.43;;;2.70;;
83690;SDS011;73671;43.220;0.064;2024-01-15T05:01:22;3.08;;;2.22;;
83690;SDS011;73671;43.220;0.064;2024-01-15T05:03:47;6.07;;;3.08;;
83690;SDS011;73671;43.220;0.064;2024-01-15T05:06:14;8.85;;;4.40;;
83690;SDS011;73671;43.220;0.064;2024-01-15T05:08:39;4.72;;;3.97;;
83690;SDS011;73671;43.220;0.064;2024-01-15T05:11:05;5.55;;;4.03;;
83690;SDS011;73671;43.220;0.064;2024-01-15T05:13:30;7.13;;;4.90;;
83690;SDS011;73671;43.220;0.064;2024-01-15T05:15:55;9.13;;;6.28;;
83690;SDS011;73671;43.220;0.064;2024-01-15T05:18:21;6.35;;;4.60;;
83690;SDS011;73671;43.220;0.064;2024-01-15T05:20:47;5.88;;;4.63;;
83690;SDS011;73671;43.220;0.064;2024-01-15T05:23:12;3.70;;;2.85;;
83690;SDS011;73671;43.220;0.064;2024-01-15T05:25:37;4.10;;;2.85;;
83690;SDS011;73671;43.220;0.064;2024-01-15T05:28:03;3.95;;;2.60;;
83690;SDS011;73671;43.220;0.064;2024-01-15T05:30:30;4.43;;;2.30;;
83690;SDS011;73671;43.220;0.064;2024-01-15T05:32:55;5.57;;;2.70;;
83690;SDS011;73671;43.220;0.064;2024-01-15T05:35:22;4.15;;;2.20;;
83690;SDS011;73671;43.220;0.064;2024-01-15T05:37:47;3.72;;;2.58;;
83690;SDS011;73671;43.220;0.064;2024-01-15T05:40:13;6.25;;;2.72;;
83690;SDS011;73671;43.220;0.064;2024-01-15T05:42:39;4.90;;;3.00;;
83690;SDS011;73671;43.220;0.064;2024-01-15T05:45:05;5.68;;;2.58;;
83690;SDS011;73671;43.220;0.064;2024-01-15T05:47:31;3.20;;;2.45;;
83690;SDS011;73671;43.220;0.064;2024-01-15T05:49:56;6.30;;;3.00;;
83690;SDS011;73671;43.220;0.064;2024-01-15T05:52:23;2.60;;;2.33;;
83690;SDS011;73671;43.220;0.064;2024-01-15T05:54:49;3.40;;;2.42;;
83690;SDS011;73671;43.220;0.064;2024-01-15T05:57:14;5.20;;;2.67;;
83690;SDS011;73671;43.220;0.064;2024-01-15T05:59:40;3.80;;;3.17;;
83690;SDS011;73671;43.220;0.064;2024-01-15T06:02:05;5.10;;;3.15;;
83690;SDS011;73671;43.220;0.064;2024-01-15T06:04:30;4.15;;;3.47;;
83690;SDS011;73671;43.220;0.064;2024-01-15T06:06:56;5.70;;;2.80;;
83690;SDS011;73671;43.220;0.064;2024-01-15T06:09:21;3.03;;;2.63;;
83690;SDS011;73671;43.220;0.064;2024-01-15T06:11:46;3.20;;;2.90;;
83690;SDS011;73671;43.220;0.064;2024-01-15T06:14:12;5.75;;;3.00;;
83690;SDS011;73671;43.220;0.064;2024-01-15T06:16:37;7.72;;;4.32;;
83690;SDS011;73671;43.220;0.064;2024-01-15T06:19:02;6.97;;;5.18;;
83690;SDS011;73671;43.220;0.064;2024-01-15T06:21:28;7.10;;;4.65;;
83690;SDS011;73671;43.220;0.064;2024-01-15T06:23:53;7.60;;;4.43;;
83690;SDS011;73671;43.220;0.064;2024-01-15T06:26:21;5.80;;;3.90;;
83690;SDS011;73671;43.220;0.064;2024-01-15T06:28:47;4.80;;;4.00;;
83690;SDS011;73671;43.220;0.064;2024-01-15T06:31:12;4.63;;;3.50;;
83690;SDS011;73671;43.220;0.064;2024-01-15T06:33:38;4.93;;;3.38;;
83690;SDS011;73671;43.220;0.064;2024-01-15T06:36:03;5.25;;;3.65;;
83690;SDS011;73671;43.220;0.064;2024-01-15T06:38:30;4.00;;;2.67;;
83690;SDS011;73671;43.220;0.064;2024-01-15T06:40:55;3.67;;;2.65;;
83690;SDS011;73671;43.220;0.064;2024-01-15T06:43:21;4.47;;;2.97;;
83690;SDS011;73671;43.220;0.064;2024-01-15T06:45:46;3.28;;;2.55;;
83690;SDS011;73671;43.220;0.064;2024-01-15T06:48:12;3.25;;;2.80;;
83690;SDS011;73671;43.220;0.064;2024-01-15T06:50:41;4.18;;;2.55;;
83690;SDS011;73671;43.220;0.064;2024-01-15T06:53:09;6.88;;;3.08;;
83690;SDS011;73671;43.220;0.064;2024-01-15T06:55:35;2.97;;;2.70;;
83690;SDS011;73671;43.220;0.064;2024-01-15T06:58:00;3.25;;;2.80;;
83690;SDS011;73671;43.220;0.064;2024-01-15T07:00:26;9.32;;;3.38;;
83690;SDS011;73671;43.220;0.064;2024-01-15T07:02:52;4.15;;;3.58;;
83690;SDS011;73671;43.220;0.064;2024-01-15T07:05:18;5.13;;;4.05;;
83690;SDS011;73671;43.220;0.064;2024-01-15T07:07:43;5.60;;;3.78;;
83690;SDS011;73671;43.220;0.064;2024-01-15T07:10:08;6.93;;;3.55;;
83690;SDS011;73671;43.220;0.064;2024-01-15T07:12:35;5.57;;;3.78;;
83690;SDS011;73671;43.220;0.064;2024-01-15T07:15:00;7.50;;;3.90;;
83690;SDS011;73671;43.220;0.064;2024-01-15T07:17:27;5.28;;;4.15;;
83690;SDS011;73671;43.220;0.064;2024-01-15T07:19:52;5.85;;;4.00;;
83690;SDS011;73671;43.220;0.064;2024-01-15T07:22:17;8.10;;;4.10;;
83690;SDS011;73671;43.220;0.064;2024-01-15T07:24:43;10.55;;;4.70;;
83690;SDS011;73671;43.220;0.064;2024-01-15T07:27:09;8.32;;;4.30;;
83690;SDS011;73671;43.220;0.064;2024-01-15T07:29:34;6.45;;;4.00;;
83690;SDS011;73671;43.220;0.064;2024-01-15T07:32:03;10.65;;;4.45;;
83690;SDS011;73671;43.220;0.064;2024-01-15T07:34:29;9.25;;;4.22;;
83690;SDS011;73671;43.220;0.064;2024-01-15T07:36:55;4.65;;;4.18;;
83690;SDS011;73671;43.220;0.064;2024-01-15T07:39:20;5.95;;;4.25;;
83690;SDS011;73671;43.220;0.064;2024-01-15T07:41:48;9.85;;;4.80;;
83690;SDS011;73671;43.220;0.064;2024-01-15T07:44:13;9.02;;;4.50;;
83690;SDS011;73671;43.220;0.064;2024-01-15T07:46:40;10.57;;;5.05;;
83690;SDS011;73671;43.220;0.064;2024-01-15T07:49:08;5.63;;;4.25;;
83690;SDS011;73671;43.220;0.064;2024-01-15T07:51:34;9.05;;;4.47;;
83690;SDS011;73671;43.220;0.064;2024-01-15T07:53:59;11.00;;;4.82;;
83690;SDS011;73671;43.220;0.064;2024-01-15T07:56:25;10.50;;;6.82;;
83690;SDS011;73671;43.220;0.064;2024-01-15T07:58:52;13.55;;;8.35;;
83690;SDS011;73671;43.220;0.064;2024-01-15T08:01:17;10.23;;;6.72;;
83690;SDS011;73671;43.220;0.064;2024-01-15T08:03:43;20.60;;;12.40;;
83690;SDS011;73671;43.220;0.064;2024-01-15T08:06:08;17.90;;;9.77;;
83690;SDS011;73671;43.220;0.064;2024-01-15T08:08:34;16.13;;;9.60;;
83690;SDS011;73671;43.220;0.064;2024-01-15T08:11:00;17.42;;;9.93;;
83690;SDS011;73671;43.220;0.064;2024-01-15T08:13:26;17.77;;;11.07;;
83690;SDS011;73671;43.220;0.064;2024-01-15T08:15:51;14.38;;;10.18;;
83690;SDS011;73671;43.220;0.064;2024-01-15T08:18:17;23.05;;;13.48;;
83690;SDS011;73671;43.220;0.064;2024-01-15T08:20:42;18.02;;;11.00;;
83690;SDS011;73671;43.220;0.064;2024-01-15T08:23:08;19.30;;;12.15;;
83690;SDS011;73671;43.220;0.064;2024-01-15T08:25:34;13.68;;;7.25;;
83690;SDS011;73671;43.220;0.064;2024-01-15T08:28:00;8.35;;;4.78;;
83690;SDS011;73671;43.220;0.064;2024-01-15T08:30:25;6.97;;;5.70;;
83690;SDS011;73671;43.220;0.064;2024-01-15T08:32:53;7.60;;;5.40;;
83690;SDS011;73671;43.220;0.064;2024-01-15T08:35:19;8.07;;;5.15;;
83690;SDS011;73671;43.220;0.064;2024-01-15T08:37:48;6.75;;;5.18;;
83690;SDS011;73671;43.220;0.064;2024-01-15T08:40:19;6.78;;;5.20;;
83690;SDS011;73671;43.220;0.064;2024-01-15T08:42:44;9.93;;;5.50;;
83690;SDS011;73671;43.220;0.064;2024-01-15T08:45:14;15.10;;;5.70;;
83690;SDS011;73671;43.220;0.064;2024-01-15T08:47:39;8.95;;;5.88;;
83690;SDS011;73671;43.220;0.064;2024-01-15T08:50:05;13.73;;;6.18;;
83690;SDS011;73671;43.220;0.064;2024-01-15T08:52:30;12.88;;;5.45;;
83690;SDS011;73671;43.220;0.064;2024-01-15T08:54:56;9.15;;;5.47;;
83690;SDS011;73671;43.220;0.064;2024-01-15T08:57:22;12.35;;;5.63;;
83690;SDS011;73671;43.220;0.064;2024-01-15T08:59:48;8.95;;;5.72;;
83690;SDS011;73671;43.220;0.064;2024-01-15T09:02:13;10.20;;;5.80;;
83690;SDS011;73671;43.220;0.064;2024-01-15T09:04:39;8.55;;;5.85;;
83690;SDS011;73671;43.220;0.064;2024-01-15T09:07:04;6.72;;;5.45;;
83690;SDS011;73671;43.220;0.064;2024-01-15T09:09:30;7.90;;;5.68;;
83690;SDS011;73671;43.220;0.064;2024-01-15T09:11:55;12.93;;;6.82;;
83690;SDS011;73671;43.220;0.064;2024-01-15T09:14:21;10.13;;;6.22;;
83690;SDS011;73671;43.220;0.064;2024-01-15T09:16:47;9.07;;;5.95;;
83690;SDS011;73671;43.220;0.064;2024-01-15T09:19:13;12.45;;;7.05;;
83690;SDS011;73671;43.220;0.064;2024-01-15T09:21:38;18.35;;;10.52;;
83690;SDS011;73671;43.220;0.064;2024-01-15T09:24:04;18.80;;;12.13;;
83690;SDS011;73671;43.220;0.064;2024-01-15T09:26:29;18.45;;;11.80;;
83690;SDS011;73671;43.220;0.064;2024-01-15T09:28:55;14.60;;;9.63;;
83690;SDS011;73671;43.220;0.064;2024-01-15T09:31:20;10.50;;;7.90;;
83690;SDS011;73671;43.220;0.064;2024-01-15T09:33:46;10.23;;;7.30;;
83690;SDS011;73671;43.220;0.064;2024-01-15T09:36:12;9.07;;;6.35;;
83690;SDS011;73671;43.220;0.064;2024-01-15T09:38:37;10.63;;;6.93;;
83690;SDS011;73671;43.220;0.064;2024-01-15T09:41:03;9.52;;;6.82;;
83690;SDS011;73671;43.220;0.064;2024-01-15T09:43:28;10.70;;;6.80;;
83690;SDS011;73671;43.220;0.064;2024-01-15T09:45:54;10.18;;;6.30;;
83690;SDS011;73671;43.220;0.064;2024-01-15T09:48:20;13.80;;;7.20;;
83690;SDS011;73671;43.220;0.064;2024-01-15T09:50:45;9.07;;;6.75;;
83690;SDS011;73671;43.220;0.064;2024-01-15T09:53:11;11.63;;;6.85;;
83690;SDS011;73671;43.220;0.064;2024-01-15T09:55:39;11.75;;;7.35;;
83690;SDS011;73671;43.220;0.064;2024-01-15T09:58:04;11.18;;;7.88;;
83690;SDS011;73671;43.220;0.064;2024-01-15T10:00:30;13.10;;;7.15;;
83690;SDS011;73671;43.220;0.064;2024-01-15T10:02:58;12.50;;;7.93;;
83690;SDS011;73671;43.220;0.064;2024-01-15T10:05:26;8.68;;;6.00;;
83690;SDS011;73671;43.220;0.064;2024-01-15T10:07:52;10.15;;;6.43;;
83690;SDS011;73671;43.220;0.064;2024-01-15T10:10:19;9.93;;;7.00;;
83690;SDS011;73671;43.220;0.064;2024-01-15T10:12:46;17.75;;;7.20;;
83690;SDS011;73671;43.220;0.064;2024-01-15T10:15:12;7.57;;;6.10;;
83690;SDS011;73671;43.220;0.064;2024-01-15T10:17:38;9.68;;;6.50;;
83690;SDS011;73671;43.220;0.064;2024-01-15T10:20:08;9.15;;;5.90;;
83690;SDS011;73671;43.220;0.064;2024-01-15T10:22:35;8.93;;;6.75;;
83690;SDS011;73671;43.220;0.064;2024-01-15T10:25:03;9.30;;;7.05;;
83690;SDS011;73671;43.220;0.064;2024-01-15T10:27:29;13.40;;;8.48;;
83690;SDS011;73671;43.220;0.064;2024-01-15T10:29:54;10.30;;;7.18;;
83690;SDS011;73671;43.220;0.064;2024-01-15T10:32:25;11.90;;;7.90;;
83690;SDS011;73671;43.220;0.064;2024-01-15T10:34:52;13.77;;;7.68;;
83690;SDS011;73671;43.220;0.064;2024-01-15T10:37:18;12.20;;;8.05;;
83690;SDS011;73671;43.220;0.064;2024-01-15T10:39:44;12.60;;;7.40;;
83690;SDS011;73671;43.220;0.064;2024-01-15T10:42:11;7.50;;;5.53;;
83690;SDS011;73671;43.220;0.064;2024-01-15T10:44:36;9.73;;;6.82;;
83690;SDS011;73671;43.220;0.064;2024-01-15T10:47:02;10.05;;;6.20;;
83690;SDS011;73671;43.220;0.064;2024-01-15T10:49:29;8.45;;;5.22;;
83690;SDS011;73671;43.220;0.064;2024-01-15T10:51:55;7.07;;;3.95;;
83690;SDS011;73671;43.220;0.064;2024-01-15T10:54:22;6.35;;;3.60;;
83690;SDS011;73671;43.220;0.064;2024-01-15T10:56:48;7.00;;;2.90;;
83690;SDS011;73671;43.220;0.064;2024-01-15T10:59:15;3.13;;;2.42;;
83690;SDS011;73671;43.220;0.064;2024-01-15T11:01:41;2.80;;;2.47;;
83690;SDS011;73671;43.220;0.064;2024-01-15T11:04:07;5.75;;;2.83;;
83690;SDS011;73671;43.220;0.064;2024-01-15T11:06:44;3.28;;;2.05;;
83690;SDS011;73671;43.220;0.064;2024-01-15T11:09:10;4.07;;;2.33;;
83690;SDS011;73671;43.220;0.064;2024-01-15T11:11:40;5.47;;;2.47;;
83690;SDS011;73671;43.220;0.064;2024-01-15T11:14:09;3.90;;;1.80;;
83690;SDS011;73671;43.220;0.064;2024-01-15T11:16:53;2.20;;;1.77;;
83690;SDS011;73671;43.220;0.064;2024-01-15T11:19:34;4.53;;;2.13;;
83690;SDS011;73671;43.220;0.064;2024-01-15T11:22:02;4.63;;;2.40;;
83690;SDS011;73671;43.220;0.064;2024-01-15T11:24:38;5.95;;;3.15;;
83690;SDS011;73671;43.220;0.064;2024-01-15T11:27:06;6.47;;;2.97;;
83690;SDS011;73671;43.220;0.064;2024-01-15T11:32:06;3.63;;;2.50;;
83690;SDS011;73671;43.220;0.064;2024-01-15T11:37:25;8.13;;;4.30;;
83690;SDS011;73671;43.220;0.064;2024-01-15T11:39:54;5.68;;;4.00;;
83690;SDS011;73671;43.220;0.064;2024-01-15T11:42:28;6.15;;;4.10;;
83690;SDS011;73671;43.220;0.064;2024-01-15T11:44:54;12.35;;;6.93;;
83690;SDS011;73671;43.220;0.064;2024-01-15T11:47:30;6.05;;;3.88;;
83690;SDS011;73671;43.220;0.064;2024-01-15T11:50:17;5.57;;;3.55;;
83690;SDS011;73671;43.220;0.064;2024-01-15T11:52:43;2.55;;;1.88;;
83690;SDS011;73671;43.220;0.064;2024-01-15T11:57:49;4.60;;;2.55;;
83690;SDS011;73671;43.220;0.064;2024-01-15T12:00:16;4.10;;;2.28;;
83690;SDS011;73671;43.220;0.064;2024-01-15T12:02:42;3.33;;;2.80;;
83690;SDS011;73671;43.220;0.064;2024-01-15T12:05:09;6.90;;;2.78;;
83690;SDS011;73671;43.220;0.064;2024-01-15T12:07:37;4.45;;;3.33;;
83690;SDS011;73671;43.220;0.064;2024-01-15T12:10:07;3.78;;;2.83;;
83690;SDS011;73671;43.220;0.064;2024-01-15T12:15:01;2.35;;;2.13;;
83690;SDS011;73671;43.220;0.064;2024-01-15T12:17:27;2.47;;;2.28;;
83690;SDS011;73671;43.220;0.064;2024-01-15T12:19:52;4.30;;;2.50;;
83690;SDS011;73671;43.220;0.064;2024-01-15T12:22:18;4.15;;;2.47;;
83690;SDS011;73671;43.220;0.064;2024-01-15T12:24:44;4.38;;;2.78;;
83690;SDS011;73671;43.220;0.064;2024-01-15T12:27:09;3.90;;;2.38;;
83690;SDS011;73671;43.220;0.064;2024-01-15T12:29:35;5.20;;;2.30;;
83690;SDS011;73671;43.220;0.064;2024-01-15T12:32:00;6.63;;;2.67;;
83690;SDS011;73671;43.220;0.064;2024-01-15T12:34:28;2.00;;;1.67;;
83690;SDS011;73671;43.220;0.064;2024-01-15T12:36:56;1.70;;;1.60;;
83690;SDS011;73671;43.220;0.064;2024-01-15T12:39:22;1.85;;;1.60;;
83690;SDS011;73671;43.220;0.064;2024-01-15T12:41:47;2.22;;;1.60;;
83690;SDS011;73671;43.220;0.064;2024-01-15T12:44:13;3.22;;;1.88;;
83690;SDS011;73671;43.220;0.064;2024-01-15T12:46:38;2.53;;;1.40;;
83690;SDS011;73671;43.220;0.064;2024-01-15T12:49:04;2.90;;;1.30;;
83690;SDS011;73671;43.220;0.064;2024-01-15T12:51:29;1.20;;;1.10;;
83690;SDS011;73671;43.220;0.064;2024-01-15T12:53:55;1.25;;;1.00;;
83690;SDS011;73671;43.220;0.064;2024-01-15T12:56:20;2.42;;;1.23;;
83690;SDS011;73671;43.220;0.064;2024-01-15T12:58:46;1.73;;;1.30;;
83690;SDS011;73671;43.220;0.064;2024-01-15T13:01:12;2.25;;;1.30;;
83690;SDS011;73671;43.220;0.064;2024-01-15T13:03:37;3.45;;;1.60;;
83690;SDS011;73671;43.220;0.064;2024-01-15T13:06:03;2.45;;;1.50;;
83690;SDS011;73671;43.220;0.064;2024-01-15T13:08:28;1.98;;;1.20;;
83690;SDS011;73671;43.220;0.064;2024-01-15T13:10:54;1.92;;;1.50;;
83690;SDS011;73671;43.220;0.064;2024-01-15T13:13:22;3.63;;;1.60;;
83690;SDS011;73671;43.220;0.064;2024-01-15T13:15:47;2.53;;;1.50;;
83690;SDS011;73671;43.220;0.064;2024-01-15T13:18:13;1.48;;;1.38;;
83690;SDS011;73671;43.220;0.064;2024-01-15T13:20:38;1.48;;;1.17;;
83690;SDS011;73671;43.220;0.064;2024-01-15T13:23:04;3.35;;;1.38;;
83690;SDS011;73671;43.220;0.064;2024-01-15T13:25:29;2.60;;;2.03;;
83690;SDS011;73671;43.220;0.064;2024-01-15T13:27:54;2.35;;;1.63;;
83690;SDS011;73671;43.220;0.064;2024-01-15T13:30:20;2.47;;;1.60;;
83690;SDS011;73671;43.220;0.064;2024-01-15T13:32:45;2.63;;;1.60;;
83690;SDS011;73671;43.220;0.064;2024-01-15T13:35:11;1.83;;;1.73;;
83690;SDS011;73671;43.220;0.064;2024-01-15T13:37:38;3.00;;;1.90;;
83690;SDS011;73671;43.220;0.064;2024-01-15T13:40:06;3.20;;;1.90;;
83690;SDS011;73671;43.220;0.064;2024-01-15T13:42:34;1.90;;;1.80;;
83690;SDS011;73671;43.220;0.064;2024-01-15T13:45:00;1.52;;;1.40;;
83690;SDS011;73671;43.220;0.064;2024-01-15T13:47:25;3.85;;;1.60;;
83690;SDS011;73671;43.220;0.064;2024-01-15T13:49:51;1.55;;;1.45;;
83690;SDS011;73671;43.220;0.064;2024-01-15T13:52:16;2.28;;;1.80;;
83690;SDS011;73671;43.220;0.064;2024-01-15T13:54:42;2.42;;;1.90;;
83690;SDS011;73671;43.220;0.064;2024-01-15T13:57:08;5.47;;;2.15;;
83690;SDS011;73671;43.220;0.064;2024-01-15T13:59:33;3.05;;;1.90;;
83690;SDS011;73671;43.220;0.064;2024-01-15T14:01:58;2.88;;;1.90;;
83690;SDS011;73671;43.220;0.064;2024-01-15T14:04:24;2.20;;;2.00;;
83690;SDS011;73671;43.220;0.064;2024-01-15T14:06:49;4.65;;;3.35;;
83690;SDS011;73671;43.220;0.064;2024-01-15T14:09:14;2.47;;;2.28;;
83690;SDS011;73671;43.220;0.064;2024-01-15T14:11:40;3.75;;;2.30;;
83690;SDS011;73671;43.220;0.064;2024-01-15T14:14:05;2.30;;;2.10;;
83690;SDS011;73671;43.220;0.064;2024-01-15T14:16:33;2.40;;;2.15;;
83690;SDS011;73671;43.220;0.064;2024-01-15T14:18:58;6.15;;;2.40;;
83690;SDS011;73671;43.220;0.064;2024-01-15T14:21:24;5.00;;;2.03;;
83690;SDS011;73671;43.220;0.064;2024-01-15T14:23:49;2.60;;;1.92;;
83690;SDS011;73671;43.220;0.064;2024-01-15T14:26:14;4.80;;;2.45;;
83690;SDS011;73671;43.220;0.064;2024-01-15T14:28:40;3.13;;;2.15;;
83690;SDS011;73671;43.220;0.064;2024-01-15T14:31:05;3.67;;;3.33;;
83690;SDS011;73671;43.220;0.064;2024-01-15T14:33:31;4.07;;;3.42;;
83690;SDS011;73671;43.220;0.064;2024-01-15T14:35:57;5.63;;;3.55;;
83690;SDS011;73671;43.220;0.064;2024-01-15T14:38:22;3.17;;;2.75;;
83690;SDS011;73671;43.220;0.064;2024-01-15T14:40:48;3.92;;;3.03;;
83690;SDS011;73671;43.220;0.064;2024-01-15T14:43:14;3.65;;;3.05;;
83690;SDS011;73671;43.220;0.064;2024-01-15T14:45:40;3.70;;;2.97;;